Osg Courageous — WDF7122 — position and weather

sailwx.info

Track history (hours):
 
Tides and Currents Weather Stations Pressure Air Temp Water Temp Dewpoint Dewpoint Depression Visibility Wind Speed Wind Dir Waves Ship Positions

Osg Courageous

Owner: OSG Ship Management, Inc, Tampa, FL. More information available from US FCC via Universal Licensing System and Coast Guard Vessel Documentation Center.

Last reported at 2014-Nov-22 06:23 UTC. Time now 2014-Nov-23 18:51 UTC.
Position N 27°36' W 082°55'.

Length 187 m; draft 11 m.

Type: Tanker. MMSI: 367481310.

Date/timePositionNaut miles runAvg speedWind from/ knotsBaromVisibWave heightAir tempDewpointWater temp
2014-Nov-22 06:23N 27°36' W 082°55'1011.5
2014-Nov-22 05:32N 27°36' W 082°44'1010.3
2014-Nov-22 04:32N 27°41' W 082°34'1010.0
2014-Nov-22 03:33N 27°49' W 082°27'8 7.7
2014-Nov-22 02:33N 27°57' W 082°27'0 0.0
2014-Nov-22 01:33N 27°57' W 082°27'0 0.0
2014-Nov-22 00:33N 27°57' W 082°27'0 0.0
2014-Nov-21 23:33N 27°57' W 082°27'0 0.0
2014-Nov-21 22:33N 27°57' W 082°27'0 0.0
2014-Nov-21 21:33N 27°57' W 082°27'0 0.0
2014-Nov-21 20:33N 27°57' W 082°27'2 2.4
2014-Nov-21 19:33N 27°54' W 082°26'1 1.0
2014-Nov-21 18:33N 27°55' W 082°26'0 0.0
2014-Nov-21 17:33N 27°55' W 082°26'0 0.0
2014-Nov-21 16:30N 27°55' W 082°26'0 0.0
2014-Nov-21 15:30N 27°55' W 082°26'0 0.0
2014-Nov-21 14:33N 27°55' W 082°26'0 0.0
2014-Nov-21 13:33N 27°55' W 082°26'2 1.7
2014-Nov-21 12:33N 27°57' W 082°27'0 0.2
2014-Nov-21 11:33N 27°57' W 082°27'0 0.0
2014-Nov-21 10:33N 27°57' W 082°27'0 0.0
2014-Nov-21 09:33N 27°57' W 082°27'0 0.0
2014-Nov-21 08:33N 27°57' W 082°27'0 0.0
2014-Nov-21 07:33N 27°57' W 082°27'0 0.0
2014-Nov-21 06:33N 27°57' W 082°27'0 0.0
2014-Nov-21 05:33N 27°57' W 082°27'0 0.0
2014-Nov-21 04:33N 27°57' W 082°27'0 0.0
2014-Nov-21 03:33N 27°57' W 082°27'0 0.0
2014-Nov-21 02:33N 27°57' W 082°27'0 0.0
2014-Nov-21 01:33N 27°57' W 082°27'0 0.0
2014-Nov-21 00:33N 27°57' W 082°27'0 0.0
2014-Nov-20 23:33N 27°57' W 082°27'0 0.0
2014-Nov-20 22:33N 27°57' W 082°27'0 0.0
2014-Nov-20 21:33N 27°57' W 082°27'0 0.0
2014-Nov-20 20:33N 27°57' W 082°27'0 0.0
2014-Nov-20 19:33N 27°57' W 082°27'1 1.1
2014-Nov-20 18:33N 27°56' W 082°27'8 7.8
2014-Nov-20 17:33N 27°48' W 082°28'10 9.6
2014-Nov-20 16:33N 27°41' W 082°35'1010.1
2014-Nov-20 15:33N 27°36' W 082°46'1110.5
2014-Nov-20 14:33N 27°36' W 082°57'1110.6
2014-Nov-20 13:33N 27°35' W 083°09'1111.0
2014-Nov-20 12:33N 27°36' W 083°22'  
Track history (hours):
 
Tides and Currents Weather Stations Pressure Air Temp Water Temp Dewpoint Dewpoint Depression Visibility Wind Speed Wind Dir Waves Ship Positions

Osg Courageous

Owner: OSG Ship Management, Inc, Tampa, FL. More information available from US FCC via Universal Licensing System and Coast Guard Vessel Documentation Center.

Last reported at 2014-Nov-22 06:23 UTC. Time now 2014-Nov-23 18:51 UTC.
Position N 27°36' W 082°55'.

Length 187 m; draft 11 m.

Type: Tanker. MMSI: 367481310.

Date/timePositionNaut miles runAvg speedWind from/ knotsBaromVisibWave heightAir tempDewpointWater temp
2014-Nov-22 06:23N 27°36' W 082°55'1011.5
2014-Nov-22 05:32N 27°36' W 082°44'1010.3
2014-Nov-22 04:32N 27°41' W 082°34'1010.0
2014-Nov-22 03:33N 27°49' W 082°27'8 7.7
2014-Nov-22 02:33N 27°57' W 082°27'0 0.0
2014-Nov-22 01:33N 27°57' W 082°27'0 0.0
2014-Nov-22 00:33N 27°57' W 082°27'0 0.0
2014-Nov-21 23:33N 27°57' W 082°27'0 0.0
2014-Nov-21 22:33N 27°57' W 082°27'0 0.0
2014-Nov-21 21:33N 27°57' W 082°27'0 0.0
2014-Nov-21 20:33N 27°57' W 082°27'2 2.4
2014-Nov-21 19:33N 27°54' W 082°26'1 1.0
2014-Nov-21 18:33N 27°55' W 082°26'0 0.0
2014-Nov-21 17:33N 27°55' W 082°26'0 0.0
2014-Nov-21 16:30N 27°55' W 082°26'0 0.0
2014-Nov-21 15:30N 27°55' W 082°26'0 0.0
2014-Nov-21 14:33N 27°55' W 082°26'0 0.0
2014-Nov-21 13:33N 27°55' W 082°26'2 1.7
2014-Nov-21 12:33N 27°57' W 082°27'0 0.2
2014-Nov-21 11:33N 27°57' W 082°27'0 0.0
2014-Nov-21 10:33N 27°57' W 082°27'0 0.0
2014-Nov-21 09:33N 27°57' W 082°27'0 0.0
2014-Nov-21 08:33N 27°57' W 082°27'0 0.0
2014-Nov-21 07:33N 27°57' W 082°27'0 0.0
2014-Nov-21 06:33N 27°57' W 082°27'0 0.0
2014-Nov-21 05:33N 27°57' W 082°27'0 0.0
2014-Nov-21 04:33N 27°57' W 082°27'0 0.0
2014-Nov-21 03:33N 27°57' W 082°27'0 0.0
2014-Nov-21 02:33N 27°57' W 082°27'0 0.0
2014-Nov-21 01:33N 27°57' W 082°27'0 0.0
2014-Nov-21 00:33N 27°57' W 082°27'0 0.0
2014-Nov-20 23:33N 27°57' W 082°27'0 0.0
2014-Nov-20 22:33N 27°57' W 082°27'0 0.0
2014-Nov-20 21:33N 27°57' W 082°27'0 0.0
2014-Nov-20 20:33N 27°57' W 082°27'0 0.0
2014-Nov-20 19:33N 27°57' W 082°27'1 1.1
2014-Nov-20 18:33N 27°56' W 082°27'8 7.8
2014-Nov-20 17:33N 27°48' W 082°28'10 9.6
2014-Nov-20 16:33N 27°41' W 082°35'1010.1
2014-Nov-20 15:33N 27°36' W 082°46'1110.5
2014-Nov-20 14:33N 27°36' W 082°57'1110.6
2014-Nov-20 13:33N 27°35' W 083°09'1111.0
2014-Nov-20 12:33N 27°36' W 083°22'  

Dump ship's entire track history